createdAt,value
2022-11-16T00:01:03.104Z,42.78
2022-11-16T00:04:05.883Z,46.42
2022-11-16T00:07:09.538Z,44.70
2022-11-16T00:10:12.990Z,46.53
2022-11-16T00:13:15.815Z,45.40
2022-11-16T00:16:18.624Z,47.17
2022-11-16T00:19:22.082Z,47.10
2022-11-16T00:22:24.992Z,48.47
2022-11-16T00:25:27.892Z,47.40
2022-11-16T00:28:31.125Z,49.53
2022-11-16T00:31:34.146Z,47.33
2022-11-16T00:34:36.860Z,48.25
2022-11-16T00:37:39.614Z,48.87
2022-11-16T00:40:42.547Z,50.80
2022-11-16T00:43:45.434Z,47.75
2022-11-16T00:46:48.192Z,48.13
2022-11-16T00:49:50.963Z,48.85
2022-11-16T00:52:54.518Z,49.08
2022-11-16T00:55:57.364Z,47.15
2022-11-16T00:59:00.254Z,47.40
2022-11-16T01:02:03.096Z,47.62
2022-11-16T01:05:06.977Z,49.15
2022-11-16T01:08:09.808Z,47.08
2022-11-16T01:11:33.519Z,46.50
2022-11-16T01:14:38.470Z,47.15
2022-11-16T01:17:42.397Z,46.50
2022-11-16T01:20:45.246Z,47.25
2022-11-16T01:23:48.246Z,47.05
2022-11-16T01:26:51.226Z,48.33
2022-11-16T01:29:54.206Z,45.03
2022-11-16T01:32:57.086Z,45.40
2022-11-16T01:36:00.046Z,43.97
2022-11-16T01:39:04.802Z,45.92
2022-11-16T01:42:18.817Z,44.45
2022-11-16T01:45:34.233Z,45.72
2022-11-16T01:48:38.307Z,45.90
2022-11-16T01:51:51.552Z,45.63
2022-11-16T01:54:55.556Z,46.55
2022-11-16T01:58:01.823Z,47.00
2022-11-16T02:01:05.898Z,43.92
2022-11-16T02:04:13.439Z,45.35
2022-11-16T02:07:30.743Z,42.78
2022-11-16T02:10:42.633Z,42.50
2022-11-16T02:13:49.057Z,40.90
2022-11-16T02:17:12.990Z,42.75
2022-11-16T02:20:42.399Z,39.50
2022-11-16T02:24:13.501Z,39.38
2022-11-16T02:27:37.810Z,40.35
2022-11-16T02:30:46.934Z,41.20
2022-11-16T02:33:52.015Z,39.35
2022-11-16T02:36:57.458Z,37.95
2022-11-16T02:40:05.524Z,37.90
2022-11-16T02:43:12.223Z,38.85
2022-11-16T02:46:29.318Z,37.67
2022-11-16T02:49:36.828Z,37.30
2022-11-16T02:52:39.365Z,37.65
2022-11-16T02:55:45.848Z,35.70
2022-11-16T02:58:48.449Z,34.97
2022-11-16T03:02:02.227Z,35.42
2022-11-16T03:05:32.217Z,34.75
2022-11-16T03:08:39.943Z,32.72
2022-11-16T03:12:00.375Z,40.10
2022-11-16T03:15:07.431Z,44.92
2022-11-16T03:18:14.291Z,35.70
2022-11-16T03:21:37.726Z,33.25
2022-11-16T03:24:41.650Z,31.80
2022-11-16T03:28:02.552Z,34.05
2022-11-16T03:31:15.186Z,32.60
2022-11-16T03:34:21.712Z,32.80
2022-11-16T03:37:25.451Z,33.47
2022-11-16T03:40:31.607Z,33.20
2022-11-16T03:43:36.203Z,32.58
2022-11-16T03:46:44.451Z,67.28
2022-11-16T03:49:48.133Z,40.38
2022-11-16T03:52:52.163Z,33.83
2022-11-16T03:55:54.711Z,32.92
2022-11-16T03:58:57.985Z,32.92
2022-11-16T04:02:00.483Z,33.13
2022-11-16T04:05:22.859Z,31.95
2022-11-16T04:08:44.211Z,32.75
2022-11-16T04:12:07.520Z,30.73
2022-11-16T04:15:41.454Z,31.37
2022-11-16T04:19:03.471Z,30.55
2022-11-16T04:22:37.056Z,32.55
2022-11-16T04:25:42.308Z,31.30
2022-11-16T04:28:48.013Z,31.30
2022-11-16T04:35:31.748Z,31.20
2022-11-16T04:38:35.043Z,32.65
2022-11-16T04:41:56.820Z,34.72
2022-11-16T04:45:19.436Z,35.08
2022-11-16T04:48:22.547Z,34.08
2022-11-16T04:51:26.501Z,34.35
2022-11-16T04:54:29.319Z,38.15
2022-11-16T04:57:32.874Z,37.08
2022-11-16T05:00:35.513Z,38.43
2022-11-16T05:03:41.134Z,35.85
2022-11-16T05:06:43.684Z,37.40
2022-11-16T05:09:48.898Z,36.90
2022-11-16T05:12:51.619Z,37.75
2022-11-16T05:19:17.166Z,38.80
2022-11-16T05:22:20.447Z,40.05
2022-11-16T05:25:24.227Z,40.47
2022-11-16T05:28:28.254Z,40.58
2022-11-16T05:31:34.006Z,39.70
2022-11-16T05:34:40.931Z,40.97
2022-11-16T05:40:47.091Z,42.53
2022-11-16T05:43:49.525Z,43.17
2022-11-16T05:46:53.460Z,41.25
2022-11-16T05:49:56.126Z,40.75
2022-11-16T05:53:00.319Z,40.30
2022-11-16T05:56:03.085Z,41.22
2022-11-16T05:59:11.193Z,42.35
2022-11-16T06:02:18.531Z,42.58
2022-11-16T06:05:21.774Z,42.08
2022-11-16T06:08:25.058Z,41.65
2022-11-16T06:11:32.821Z,41.90
2022-11-16T06:14:38.527Z,40.83
2022-11-16T06:17:41.783Z,43.67
2022-11-16T06:20:45.021Z,42.10
2022-11-16T06:26:50.884Z,41.65
2022-11-16T06:29:54.093Z,44.83
2022-11-16T06:32:57.160Z,45.10
2022-11-16T06:36:01.411Z,44.55
2022-11-16T06:39:04.046Z,43.97
2022-11-16T06:42:08.748Z,44.65
2022-11-16T06:45:12.127Z,45.80
2022-11-16T06:48:15.359Z,45.03
2022-11-16T06:51:18.481Z,43.03
2022-11-16T06:54:22.968Z,46.88
2022-11-16T06:57:30.564Z,44.70
2022-11-16T07:00:33.930Z,44.55
2022-11-16T07:03:36.808Z,46.53
2022-11-16T07:06:41.061Z,44.70
2022-11-16T07:09:45.095Z,46.17
2022-11-16T07:12:49.551Z,46.00
2022-11-16T07:15:52.601Z,48.72
2022-11-16T07:18:57.875Z,47.00
2022-11-16T07:22:00.808Z,43.90
2022-11-16T07:25:04.627Z,49.03
2022-11-16T07:28:07.094Z,45.25
2022-11-16T07:31:15.687Z,46.72
2022-11-16T07:34:18.590Z,44.75
2022-11-16T07:40:24.508Z,48.28
2022-11-16T07:43:31.702Z,48.17
2022-11-16T07:46:46.701Z,47.20
2022-11-16T07:49:50.721Z,47.40
2022-11-16T07:52:55.655Z,47.67
2022-11-16T07:55:58.869Z,47.67
2022-11-16T07:59:02.416Z,47.72
2022-11-16T08:02:06.168Z,46.78
2022-11-16T08:05:09.219Z,50.45
2022-11-16T08:08:13.801Z,48.30
2022-11-16T08:11:17.008Z,49.67
2022-11-16T08:14:20.464Z,48.10
2022-11-16T08:17:23.727Z,47.90
2022-11-16T08:20:28.839Z,47.80
2022-11-16T08:23:32.469Z,46.72
2022-11-16T08:29:38.940Z,49.83
2022-11-16T08:35:45.941Z,47.85
2022-11-16T08:38:50.061Z,47.70
2022-11-16T08:41:54.132Z,48.80
2022-11-16T08:44:56.949Z,48.33
2022-11-16T08:48:03.959Z,48.03
2022-11-16T08:51:18.886Z,48.42
2022-11-16T08:54:23.845Z,48.92
2022-11-16T08:57:26.691Z,47.40
2022-11-16T09:00:29.745Z,48.25
2022-11-16T09:03:32.456Z,48.65
2022-11-16T09:06:35.808Z,48.22
2022-11-16T09:12:41.741Z,48.60
2022-11-16T09:15:44.987Z,46.13
2022-11-16T09:18:51.428Z,46.42
2022-11-16T09:21:54.340Z,46.63
2022-11-16T09:24:57.091Z,48.25
2022-11-16T09:28:00.066Z,47.78
2022-11-16T09:31:04.481Z,46.33
2022-11-16T09:34:07.770Z,47.05
2022-11-16T09:37:10.799Z,45.97
2022-11-16T09:40:13.611Z,45.47
2022-11-16T09:43:36.602Z,48.17
2022-11-16T09:46:52.066Z,47.20
2022-11-16T09:53:14.769Z,46.63
2022-11-16T09:56:25.928Z,47.40
2022-11-16T09:59:37.046Z,45.88
2022-11-16T10:02:48.531Z,44.33
2022-11-16T10:06:05.418Z,46.35
2022-11-16T10:09:12.494Z,46.28
2022-11-16T10:12:35.424Z,44.55
2022-11-16T10:16:02.604Z,43.15
2022-11-16T10:19:14.758Z,45.67
2022-11-16T10:22:27.593Z,45.72
2022-11-16T10:29:07.674Z,45.97
2022-11-16T10:32:22.216Z,44.60
2022-11-16T10:35:35.301Z,42.62
2022-11-16T10:38:39.300Z,41.55
2022-11-16T10:41:51.807Z,43.38
2022-11-16T10:45:13.279Z,40.85
2022-11-16T10:48:39.718Z,42.58
2022-11-16T10:51:43.460Z,42.50
2022-11-16T10:54:46.041Z,40.55
2022-11-16T10:58:06.544Z,41.05
2022-11-16T11:01:13.167Z,40.67
2022-11-16T11:04:16.318Z,42.08
2022-11-16T11:07:24.641Z,47.13
2022-11-16T11:10:31.492Z,41.90
2022-11-16T11:13:35.057Z,41.30
2022-11-16T11:16:39.203Z,41.60
2022-11-16T11:19:41.741Z,39.83
2022-11-16T11:23:02.503Z,40.42
2022-11-16T11:26:05.316Z,39.33
2022-11-16T11:32:24.099Z,38.75
2022-11-16T11:35:32.971Z,37.92
2022-11-16T11:38:57.499Z,39.50
2022-11-16T11:42:22.023Z,39.60
2022-11-16T11:45:42.539Z,39.13
2022-11-16T11:49:00.074Z,40.25
2022-11-16T11:52:14.463Z,38.55
2022-11-16T11:55:19.899Z,40.47
2022-11-16T11:58:31.329Z,40.75
2022-11-16T12:01:49.776Z,37.67
2022-11-16T12:05:10.235Z,39.03
2022-11-16T12:08:40.130Z,41.67
2022-11-16T12:12:20.467Z,39.22
2022-11-16T12:15:57.541Z,39.17
2022-11-16T12:19:03.272Z,39.85
2022-11-16T12:22:37.081Z,40.17
2022-11-16T12:29:27.488Z,38.45
2022-11-16T12:32:58.223Z,38.75
2022-11-16T12:36:22.565Z,39.90
2022-11-16T12:39:31.379Z,36.80
2022-11-16T12:43:00.028Z,37.22
2022-11-16T12:46:06.729Z,37.80
2022-11-16T12:49:31.210Z,36.30
2022-11-16T12:52:58.854Z,38.03
2022-11-16T12:56:20.473Z,37.75
2022-11-16T12:59:26.587Z,39.97
2022-11-16T13:03:00.169Z,38.50
2022-11-16T13:06:09.534Z,38.80
2022-11-16T13:09:24.389Z,36.30
2022-11-16T13:12:30.799Z,35.33
2022-11-16T13:15:37.592Z,34.85
2022-11-16T13:18:42.909Z,34.78
2022-11-16T13:21:50.477Z,33.08
2022-11-16T13:25:01.501Z,33.95
2022-11-16T13:28:20.434Z,42.25
2022-11-16T13:31:44.034Z,38.25
2022-11-16T13:34:47.878Z,35.03
2022-11-16T13:37:52.410Z,34.63
2022-11-16T13:41:47.193Z,33.40
2022-11-16T13:44:51.732Z,33.10
2022-11-16T13:47:57.974Z,32.47
2022-11-16T13:51:04.095Z,30.73
2022-11-16T13:57:52.435Z,30.25
2022-11-16T14:01:00.693Z,29.45
2022-11-16T14:04:41.841Z,29.50
2022-11-16T14:07:49.483Z,29.95
2022-11-16T14:10:52.277Z,30.27
2022-11-16T14:13:55.388Z,30.25
2022-11-16T14:16:58.295Z,29.12
2022-11-16T14:20:01.296Z,28.92
2022-11-16T14:23:04.150Z,27.85
2022-11-16T14:26:27.418Z,26.80
2022-11-16T14:30:05.326Z,25.58
2022-11-16T14:33:28.197Z,25.45
2022-11-16T14:36:42.131Z,26.80
2022-11-16T14:39:45.380Z,24.35
2022-11-16T14:43:16.940Z,23.42
2022-11-16T14:46:26.339Z,24.75
2022-11-16T14:49:33.259Z,23.87
2022-11-16T14:52:49.145Z,24.15
2022-11-16T14:55:52.058Z,24.73
2022-11-16T14:58:59.930Z,24.63
2022-11-16T15:02:16.753Z,24.75
2022-11-16T15:05:27.526Z,24.58
2022-11-16T15:08:42.354Z,24.70
2022-11-16T15:12:07.987Z,24.30
2022-11-16T15:15:10.693Z,24.42
2022-11-16T15:18:18.062Z,26.58
2022-11-16T15:21:22.744Z,25.02
2022-11-16T15:24:31.408Z,26.20
2022-11-16T15:27:40.752Z,25.65
2022-11-16T15:30:48.784Z,32.90
2022-11-16T15:33:52.392Z,29.87
2022-11-16T15:36:55.371Z,26.30
2022-11-16T15:40:00.196Z,26.55
2022-11-16T15:43:05.964Z,25.92
2022-11-16T15:46:09.159Z,25.95
2022-11-16T15:49:35.497Z,26.58
2022-11-16T15:52:55.191Z,25.58
2022-11-16T15:55:58.049Z,24.23
2022-11-16T15:59:09.627Z,25.30
2022-11-16T16:02:20.497Z,27.40
2022-11-16T16:05:40.945Z,26.48
2022-11-16T16:08:45.172Z,24.60
2022-11-16T16:11:48.552Z,28.30
2022-11-16T16:15:24.623Z,26.80
2022-11-16T16:18:40.585Z,24.95
2022-11-16T16:21:45.798Z,23.48
2022-11-16T16:24:48.641Z,25.55
2022-11-16T16:27:51.512Z,25.77
2022-11-16T16:30:54.302Z,23.50
2022-11-16T16:33:57.155Z,22.62
2022-11-16T16:36:59.922Z,23.67
2022-11-16T16:40:03.308Z,23.08
2022-11-16T16:46:11.646Z,23.85
2022-11-16T16:49:14.529Z,24.77
2022-11-16T16:52:17.965Z,23.95
2022-11-16T16:55:21.928Z,25.42
2022-11-16T16:58:24.751Z,25.50
2022-11-16T17:01:28.193Z,26.08
2022-11-16T17:04:32.785Z,23.95
2022-11-16T17:07:35.660Z,25.37
2022-11-16T17:10:39.363Z,25.08
2022-11-16T17:13:42.186Z,25.17
2022-11-16T17:16:45.045Z,24.60
2022-11-16T17:19:47.872Z,25.33
2022-11-16T17:22:56.317Z,24.40
2022-11-16T17:25:59.179Z,24.73
2022-11-16T17:29:01.957Z,26.37
2022-11-16T17:32:05.079Z,24.77
2022-11-16T17:35:08.303Z,24.60
2022-11-16T17:41:18.573Z,23.00
2022-11-16T17:44:22.078Z,21.50
2022-11-16T17:47:25.168Z,22.20
2022-11-16T17:50:28.034Z,21.83
2022-11-16T17:53:32.952Z,21.48
2022-11-16T17:56:36.145Z,20.40
2022-11-16T17:59:38.937Z,22.13
2022-11-16T18:02:41.725Z,20.95
2022-11-16T18:05:44.835Z,22.13
2022-11-16T18:08:48.284Z,21.50
2022-11-16T18:11:51.645Z,21.92
2022-11-16T18:15:21.248Z,23.17
2022-11-16T18:18:17.312Z,23.15
2022-11-16T18:21:20.953Z,24.58
2022-11-16T18:24:24.314Z,29.12
2022-11-16T18:27:26.924Z,28.37
2022-11-16T18:30:30.769Z,24.42
2022-11-16T18:36:43.485Z,22.30
2022-11-16T18:39:46.614Z,22.35
2022-11-16T18:42:53.041Z,22.45
2022-11-16T18:45:55.870Z,22.42
2022-11-16T18:49:00.090Z,22.83
2022-11-16T18:52:02.699Z,22.58
2022-11-16T18:55:06.278Z,20.55
2022-11-16T18:58:22.726Z,21.12
2022-11-16T19:01:31.916Z,20.75
2022-11-16T19:04:34.555Z,20.12
2022-11-16T19:07:37.879Z,27.10
2022-11-16T19:10:40.579Z,35.47
2022-11-16T19:13:44.654Z,21.23
2022-11-16T19:16:54.160Z,20.23
2022-11-16T19:20:02.449Z,18.80
2022-11-16T19:23:05.132Z,17.12
2022-11-16T19:26:09.964Z,16.67
2022-11-16T19:29:12.539Z,15.52
2022-11-16T19:35:18.488Z,14.73
2022-11-16T19:38:21.571Z,13.52
2022-11-16T19:41:25.524Z,15.03
2022-11-16T19:44:28.633Z,14.45
2022-11-16T19:47:31.278Z,13.37
2022-11-16T19:53:39.276Z,14.55
2022-11-16T19:56:43.450Z,17.85
2022-11-16T19:59:47.754Z,17.55
2022-11-16T20:02:56.111Z,17.42
2022-11-16T20:06:11.453Z,19.65
2022-11-16T20:09:14.589Z,17.48
2022-11-16T20:12:17.443Z,18.40
2022-11-16T20:15:23.506Z,15.85
2022-11-16T20:18:28.644Z,15.35
2022-11-16T20:21:40.509Z,15.88
2022-11-16T20:24:43.321Z,16.42
2022-11-16T20:27:46.634Z,16.98
2022-11-16T20:30:49.615Z,28.15
2022-11-16T20:33:57.676Z,21.55
2022-11-16T20:37:00.514Z,16.08
2022-11-16T20:40:04.104Z,15.75
2022-11-16T20:46:19.641Z,13.43
2022-11-16T20:49:23.978Z,16.37
2022-11-16T20:52:26.842Z,16.08
2022-11-16T20:55:29.815Z,16.62
2022-11-16T20:58:33.584Z,16.83
2022-11-16T21:01:36.854Z,15.52
2022-11-16T21:04:41.270Z,17.60
2022-11-16T21:07:44.493Z,17.50
2022-11-16T21:10:48.709Z,17.12
2022-11-16T21:14:11.041Z,17.02
2022-11-16T21:17:14.038Z,17.12
2022-11-16T21:20:27.465Z,17.02
2022-11-16T21:23:33.546Z,18.00
2022-11-16T21:26:39.892Z,17.40
2022-11-16T21:29:45.105Z,18.20
2022-11-16T21:32:47.991Z,17.25
2022-11-16T21:35:52.794Z,17.70
2022-11-16T21:38:55.818Z,16.73
2022-11-16T21:41:58.584Z,16.50
2022-11-16T21:45:01.408Z,15.95
2022-11-16T21:48:04.480Z,15.70
2022-11-16T21:51:10.648Z,15.55
2022-11-16T21:54:13.877Z,15.80
2022-11-16T21:57:18.273Z,16.70
2022-11-16T22:00:21.195Z,17.55
2022-11-16T22:03:25.941Z,17.98
2022-11-16T22:06:47.448Z,18.45
2022-11-16T22:09:50.256Z,21.33
2022-11-16T22:12:53.125Z,20.77
2022-11-16T22:15:56.004Z,22.23
2022-11-16T22:18:58.812Z,21.08
2022-11-16T22:22:01.549Z,21.58
2022-11-16T22:25:04.719Z,21.42
2022-11-16T22:28:20.578Z,23.05
2022-11-16T22:31:24.642Z,23.42
2022-11-16T22:34:27.655Z,23.33
2022-11-16T22:37:30.505Z,23.77
2022-11-16T22:40:33.371Z,22.65
2022-11-16T22:43:37.393Z,22.20
2022-11-16T22:46:40.678Z,23.55
2022-11-16T22:49:43.665Z,22.08
2022-11-16T22:52:46.460Z,21.37
2022-11-16T22:55:49.392Z,21.90
2022-11-16T22:58:52.874Z,23.08
2022-11-16T23:01:55.696Z,22.48
2022-11-16T23:04:58.629Z,21.77
2022-11-16T23:08:01.542Z,21.73
2022-11-16T23:11:29.414Z,20.90
2022-11-16T23:14:50.870Z,21.98
2022-11-16T23:17:53.694Z,22.35
2022-11-16T23:21:17.779Z,24.12
2022-11-16T23:24:39.369Z,22.52
2022-11-16T23:27:51.382Z,20.75
2022-11-16T23:30:54.290Z,22.52
2022-11-16T23:33:57.097Z,22.08
2022-11-16T23:37:03.903Z,22.60
2022-11-16T23:40:07.214Z,21.15
2022-11-16T23:43:31.203Z,21.65
2022-11-16T23:46:34.168Z,21.77
2022-11-16T23:49:36.903Z,20.02
2022-11-16T23:52:39.691Z,21.37
2022-11-16T23:55:42.407Z,21.35
2022-11-16T23:58:45.240Z,21.67
